Time;durP1;ratioP1;P1;durP2;ratioP2;P2;SDS_P1;SDS_P2;PMS_P1;PMS_P2;Temp;Humidity;BMP_temperature;BMP_pressure;BME280_temperature;BME280_humidity;BME280_pressure;Samples;Min_cycle;Max_cycle;Signal;HPM_P1;HPM_P2
2021/05/18 00:01:08;;;;;;;15.13;10.93;;;10.00;98.10;;;;;;5112953;27;20046;-48
2021/05/18 00:03:37;;;;;;;16.05;12.50;;;9.90;98.10;;;;;;5090549;28;20056;-48
2021/05/18 00:06:04;;;;;;;15.52;11.93;;;9.90;98.20;;;;;;5110643;28;20052;-49
2021/05/18 00:08:33;;;;;;;16.10;12.32;;;9.90;98.40;;;;;;5110317;28;20044;-50
2021/05/18 00:13:54;;;;;;;15.02;12.43;;;9.80;98.50;;;;;;5110143;28;20760;-50
2021/05/18 00:16:23;;;;;;;14.77;11.35;;;9.80;98.90;;;;;;5110448;28;20115;-48
2021/05/18 00:18:51;;;;;;;15.48;12.10;;;9.80;98.60;;;;;;5109843;28;20138;-51
2021/05/18 00:21:20;;;;;;;15.10;12.93;;;9.80;98.50;;;;;;5109048;28;20122;-51
2021/05/18 00:23:49;;;;;;;15.27;11.98;;;9.80;98.70;;;;;;5110496;28;20063;-55
2021/05/18 00:26:18;;;;;;;16.55;12.40;;;9.80;98.80;;;;;;5117386;27;20050;-54
2021/05/18 00:28:44;;;;;;;18.00;12.93;;;9.80;98.80;;;;;;5110054;28;20093;-52
2021/05/18 00:31:12;;;;;;;17.33;12.73;;;9.80;98.80;;;;;;5110351;28;20078;-52
2021/05/18 00:33:43;;;;;;;18.75;13.38;;;9.80;98.70;;;;;;5108794;28;20147;-50
2021/05/18 00:36:10;;;;;;;17.23;12.90;;;9.80;98.80;;;;;;5109217;28;20055;-49
2021/05/18 00:38:37;;;;;;;19.10;13.77;;;9.80;98.80;;;;;;5109706;28;20074;-50
2021/05/18 00:41:08;;;;;;;16.35;13.82;;;9.80;98.70;;;;;;5110124;28;20526;-47
2021/05/18 00:43:40;;;;;;;15.45;13.13;;;9.80;98.70;;;;;;5110174;28;20051;-52
2021/05/18 00:46:07;;;;;;;15.65;13.15;;;9.80;98.70;;;;;;5110434;28;20430;-47
2021/05/18 00:48:35;;;;;;;20.10;14.32;;;9.80;98.70;;;;;;5108820;28;20045;-47
2021/05/18 00:51:06;;;;;;;14.60;13.10;;;9.80;98.80;;;;;;5109106;28;20043;-52
2021/05/18 00:53:34;;;;;;;18.60;13.88;;;9.80;98.90;;;;;;5108853;28;20094;-47
2021/05/18 00:56:32;;;;;;;18.85;14.27;;;9.80;99.20;;;;;;5105077;28;20495;-50
2021/05/18 00:59:06;;;;;;;20.33;14.45;;;9.80;99.20;;;;;;5091807;28;20055;-48
2021/05/18 01:01:33;;;;;;;17.70;13.80;;;9.80;99.30;;;;;;5105281;28;20510;-49
2021/05/18 01:04:00;;;;;;;22.52;13.80;;;9.80;99.40;;;;;;5109380;28;20910;-49
2021/05/18 01:06:29;;;;;;;20.48;14.23;;;9.80;99.40;;;;;;5110146;28;20043;-51
2021/05/18 01:08:56;;;;;;;18.40;14.43;;;9.70;99.40;;;;;;5109240;27;20115;-51
2021/05/18 01:11:27;;;;;;;18.20;14.00;;;9.70;99.60;;;;;;5109407;28;20055;-49
2021/05/18 01:14:06;;;;;;;16.95;15.10;;;9.70;99.60;;;;;;5109284;28;20047;-51
2021/05/18 01:16:37;;;;;;;22.60;15.48;;;9.70;99.60;;;;;;5113182;28;20709;-50
2021/05/18 01:19:09;;;;;;;18.08;15.63;;;9.70;99.70;;;;;;5109359;28;20043;-48
2021/05/18 01:21:39;;;;;;;19.65;14.57;;;9.70;99.80;;;;;;5107085;28;20073;-48
2021/05/18 01:24:07;;;;;;;18.98;15.38;;;9.60;99.70;;;;;;5107986;28;20051;-49
2021/05/18 01:26:37;;;;;;;22.38;17.48;;;9.60;99.80;;;;;;5108136;28;20047;-49
2021/05/18 01:29:15;;;;;;;21.92;16.30;;;9.60;99.90;;;;;;5109430;28;20101;-48
2021/05/18 01:31:44;;;;;;;21.67;15.88;;;9.60;99.90;;;;;;5109015;28;20051;-50
2021/05/18 01:34:11;;;;;;;21.75;15.70;;;9.60;99.90;;;;;;5107717;28;20167;-51
2021/05/18 01:36:44;;;;;;;23.77;16.73;;;9.60;99.90;;;;;;5109400;28;20048;-52
2021/05/18 01:45:15;;;;;;;22.20;16.48;;;9.40;99.80;;;;;;5108737;28;20480;-48
2021/05/18 01:47:49;;;;;;;21.65;17.23;;;9.30;99.80;;;;;;5096720;28;20524;-48
2021/05/18 01:50:23;;;;;;;24.55;17.13;;;9.30;99.70;;;;;;5106978;28;20044;-48
2021/05/18 01:52:53;;;;;;;21.42;17.05;;;9.20;99.90;;;;;;5104519;28;20509;-47
2021/05/18 01:57:55;;;;;;;22.60;16.42;;;9.10;99.90;;;;;;5107237;28;20058;-48
2021/05/18 02:00:26;;;;;;;22.75;17.15;;;9.00;99.90;;;;;;5108705;27;20070;-49
2021/05/18 02:03:01;;;;;;;22.65;17.65;;;9.00;99.90;;;;;;5107108;28;20062;-48
2021/05/18 02:05:35;;;;;;;22.00;17.92;;;8.90;99.90;;;;;;5104844;28;20079;-48
2021/05/18 02:08:22;;;;;;;24.52;17.67;;;8.90;99.90;;;;;;5107052;27;20043;-48
2021/05/18 02:10:53;;;;;;;24.45;18.45;;;8.80;99.90;;;;;;5110061;28;20073;-47
2021/05/18 02:13:19;;;;;;;25.05;18.38;;;8.70;99.90;;;;;;5101914;28;20048;-48
2021/05/18 02:15:56;;;;;;;22.83;17.65;;;8.60;99.90;;;;;;5109386;28;20097;-49
2021/05/18 02:26:21;;;;;;;24.75;17.40;;;8.30;99.90;;;;;;5115261;27;20142;-47
2021/05/18 02:28:53;;;;;;;27.33;18.33;;;8.30;99.90;;;;;;5106486;28;20499;-48
2021/05/18 02:31:23;;;;;;;26.20;18.10;;;8.20;99.90;;;;;;5106568;28;20062;-49
2021/05/18 02:33:56;;;;;;;24.38;17.23;;;8.20;99.90;;;;;;5105736;28;20717;-51
2021/05/18 02:36:27;;;;;;;27.42;19.15;;;8.10;99.90;;;;;;5102875;28;20435;-48
2021/05/18 02:38:56;;;;;;;28.30;18.08;;;8.10;99.90;;;;;;5103639;28;20059;-50
2021/05/18 02:41:26;;;;;;;26.08;19.40;;;8.10;99.90;;;;;;5106428;28;20048;-49
2021/05/18 02:44:12;;;;;;;24.98;17.52;;;8.00;99.90;;;;;;5108564;27;20093;-47
2021/05/18 02:49:39;;;;;;;23.70;18.13;;;7.90;99.90;;;;;;5105679;28;20043;-47
2021/05/18 02:52:05;;;;;;;29.98;19.55;;;7.90;99.90;;;;;;5107126;28;20048;-48
2021/05/18 02:54:34;;;;;;;28.25;18.48;;;7.80;99.90;;;;;;5105992;28;20056;-52
2021/05/18 02:57:10;;;;;;;24.83;18.55;;;7.80;99.90;;;;;;5105503;28;20047;-49
2021/05/18 02:59:39;;;;;;;26.92;18.35;;;7.70;99.90;;;;;;5107590;28;20130;-47
2021/05/18 03:02:07;;;;;;;32.20;18.40;;;7.70;99.90;;;;;;5107075;28;20116;-49
2021/05/18 03:04:34;;;;;;;27.63;19.00;;;7.70;99.90;;;;;;5107402;28;20156;-49
2021/05/18 03:07:04;;;;;;;26.00;17.95;;;7.60;99.90;;;;;;5102609;28;20192;-51
2021/05/18 03:09:30;;;;;;;25.88;19.23;;;7.60;99.90;;;;;;5099284;28;20088;-51
2021/05/18 03:11:57;;;;;;;24.10;18.55;;;7.50;99.90;;;;;;5107198;28;20043;-49
2021/05/18 03:14:23;;;;;;;28.52;19.13;;;7.50;99.90;;;;;;5107191;28;20050;-51
2021/05/18 03:16:55;;;;;;;25.00;18.20;;;7.40;99.90;;;;;;5107006;28;20499;-48
2021/05/18 03:19:21;;;;;;;26.00;19.00;;;7.40;99.90;;;;;;5101303;28;20070;-51
2021/05/18 03:21:50;;;;;;;27.52;19.48;;;7.40;99.90;;;;;;5107529;28;20055;-46
2021/05/18 03:24:16;;;;;;;31.08;20.45;;;7.40;99.90;;;;;;5107715;28;20446;-49
2021/05/18 03:26:47;;;;;;;28.73;18.30;;;7.30;99.90;;;;;;5102016;28;20450;-48
2021/05/18 03:29:40;;;;;;;28.17;20.58;;;7.30;99.90;;;;;;5100522;28;20134;-47
2021/05/18 03:34:54;;;;;;;26.20;19.83;;;7.30;99.90;;;;;;5110912;28;20078;-49
2021/05/18 03:37:36;;;;;;;25.85;18.25;;;7.20;99.90;;;;;;5110915;28;20521;-46
2021/05/18 03:40:07;;;;;;;28.73;19.60;;;7.20;99.90;;;;;;5112813;28;20093;-52
2021/05/18 03:42:42;;;;;;;30.17;19.93;;;7.20;99.90;;;;;;5112766;28;20070;-48
2021/05/18 03:45:21;;;;;;;29.20;20.20;;;7.20;99.90;;;;;;5111613;28;20304;-47
2021/05/18 04:04:36;;;;;;;33.45;21.23;;;7.20;99.90;;;;;;5047592;28;20146;-47
2021/05/18 04:20:53;;;;;;;31.45;20.80;;;7.30;99.90;;;;;;5046472;28;20055;-47
2021/05/18 04:26:09;;;;;;;34.85;22.77;;;7.30;99.90;;;;;;5047166;28;20053;-51
2021/05/18 04:53:16;;;;;;;35.78;24.63;;;8.00;99.90;;;;;;5109802;28;20503;-50
2021/05/18 05:01:29;;;;;;;30.17;22.33;;;8.60;99.90;;;;;;5109437;28;20093;-48
2021/05/18 05:07:16;;;;;;;20.48;17.75;;;9.40;99.90;;;;;;5109055;28;20055;-48
2021/05/18 05:09:26;;;;;;;20.45;17.30;;;9.90;99.90;;;;;;5097456;28;20047;-49
2021/05/18 05:14:43;;;;;;;21.13;18.25;;;10.50;98.90;;;;;;5108717;28;20073;-50
2021/05/18 05:17:09;;;;;;;23.23;17.77;;;10.60;98.80;;;;;;5109670;28;20062;-49
2021/05/18 05:19:39;;;;;;;20.65;16.55;;;10.60;98.00;;;;;;5108946;28;20134;-49
2021/05/18 05:22:06;;;;;;;23.27;17.73;;;10.50;97.80;;;;;;5109184;28;20047;-49
2021/05/18 05:24:37;;;;;;;23.67;18.70;;;10.50;98.00;;;;;;5109062;28;20376;-49
2021/05/18 05:27:04;;;;;;;18.27;16.35;;;10.60;98.70;;;;;;5108103;28;20052;-50
2021/05/18 05:29:35;;;;;;;19.95;17.85;;;10.50;98.20;;;;;;5108863;28;20043;-52
2021/05/18 05:32:05;;;;;;;26.35;23.15;;;10.50;98.40;;;;;;5109425;28;20048;-49
2021/05/18 05:34:31;;;;;;;29.30;23.45;;;10.50;98.50;;;;;;5111635;27;20061;-49
2021/05/18 05:37:00;;;;;;;70.03;54.72;;;10.50;98.20;;;;;;5109218;28;20083;-50
2021/05/18 05:39:30;;;;;;;81.80;66.72;;;10.60;98.70;;;;;;5105202;28;20048;-49
2021/05/18 05:42:03;;;;;;;26.77;22.15;;;10.70;98.40;;;;;;5108696;27;20116;-49
2021/05/18 05:44:29;;;;;;;23.20;17.25;;;10.70;98.20;;;;;;5119884;27;20035;-48
2021/05/18 05:46:57;;;;;;;29.70;22.30;;;10.70;98.00;;;;;;5115068;27;20384;-49
2021/05/18 05:49:26;;;;;;;26.38;21.42;;;10.70;98.10;;;;;;5109154;27;20051;-52
2021/05/18 05:51:54;;;;;;;30.60;26.10;;;10.70;98.30;;;;;;5106380;28;20047;-48
2021/05/18 05:54:23;;;;;;;27.55;21.90;;;10.70;98.10;;;;;;5111994;27;20051;-49
2021/05/18 05:56:54;;;;;;;141.65;124.35;;;10.60;98.20;;;;;;5106265;27;20043;-48
2021/05/18 05:59:23;;;;;;;70.22;58.47;;;10.70;98.30;;;;;;5111806;27;20054;-53
2021/05/18 06:01:52;;;;;;;26.85;22.88;;;10.70;98.00;;;;;;5108095;28;20047;-49
2021/05/18 06:04:21;;;;;;;20.92;17.77;;;10.70;98.10;;;;;;5104887;27;20047;-47
2021/05/18 06:06:50;;;;;;;29.20;23.13;;;10.60;97.90;;;;;;5101923;28;20052;-48
2021/05/18 06:09:20;;;;;;;27.13;22.10;;;10.80;98.10;;;;;;5097181;28;20043;-50
2021/05/18 06:17:22;;;;;;;22.25;19.38;;;10.80;97.30;;;;;;5103992;28;19923;-48
2021/05/18 06:36:59;;;;;;;42.25;36.47;;;12.60;95.30;;;;;;5048933;28;20065;-50
2021/05/18 06:47:49;;;;;;;15.38;12.18;;;12.40;94.60;;;;;;5049942;28;20048;-51
2021/05/18 06:50:28;;;;;;;17.13;12.75;;;12.30;94.00;;;;;;5047981;28;20057;-50
2021/05/18 06:52:56;;;;;;;14.32;12.43;;;12.20;93.10;;;;;;5050223;28;20198;-49
2021/05/18 06:55:30;;;;;;;18.50;14.52;;;12.30;93.30;;;;;;5044430;28;20064;-49
2021/05/18 06:58:08;;;;;;;31.33;24.13;;;12.10;93.30;;;;;;5044355;28;20049;-49
2021/05/18 07:00:39;;;;;;;19.25;15.27;;;12.10;93.90;;;;;;5048784;28;20049;-49
2021/05/18 07:03:12;;;;;;;20.83;17.17;;;12.20;94.00;;;;;;5048353;28;20063;-50
2021/05/18 07:05:56;;;;;;;16.20;14.07;;;12.10;93.80;;;;;;5051147;28;20102;-47
2021/05/18 07:13:57;;;;;;;15.68;13.98;;;12.20;92.00;;;;;;5070830;28;19974;-49
2021/05/18 07:16:26;;;;;;;19.92;13.48;;;12.40;94.10;;;;;;5094377;27;20048;-51
2021/05/18 07:18:54;;;;;;;17.08;15.35;;;12.50;93.30;;;;;;5094310;28;20060;-52
2021/05/18 07:21:31;;;;;;;18.97;16.27;;;12.60;93.60;;;;;;5093996;28;20049;-51
2021/05/18 07:24:08;;;;;;;19.42;16.15;;;12.80;93.50;;;;;;5098552;28;20116;-49
2021/05/18 07:26:37;;;;;;;16.27;14.32;;;12.80;93.20;;;;;;5097632;28;20047;-52
2021/05/18 07:29:03;;;;;;;16.25;13.65;;;12.90;92.70;;;;;;5097338;28;20048;-52
2021/05/18 07:31:35;;;;;;;15.60;13.50;;;12.90;93.00;;;;;;5101526;28;20071;-47
2021/05/18 07:34:01;;;;;;;14.55;12.88;;;13.10;92.60;;;;;;5098134;28;20050;-47
2021/05/18 07:36:28;;;;;;;15.38;13.82;;;13.10;92.30;;;;;;5093779;28;20055;-49
2021/05/18 07:38:56;;;;;;;20.58;18.30;;;13.20;92.00;;;;;;5091666;28;20056;-51
2021/05/18 07:41:22;;;;;;;49.63;44.30;;;13.30;92.00;;;;;;5096668;28;20055;-48
2021/05/18 07:43:54;;;;;;;13.52;12.13;;;13.40;91.90;;;;;;5094646;28;20621;-48
2021/05/18 07:46:22;;;;;;;12.75;11.45;;;13.40;91.30;;;;;;5101308;28;20073;-50
2021/05/18 08:00:03;;;;;;;12.60;10.13;;;13.80;90.00;;;;;;5098518;28;20049;-53
2021/05/18 08:05:24;;;;;;;19.02;16.80;;;13.90;89.10;;;;;;5041106;28;20061;-49
2021/05/18 08:07:53;;;;;;;12.80;11.27;;;14.00;88.20;;;;;;5039386;28;20064;-51
2021/05/18 08:12:50;;;;;;;13.27;11.68;;;14.10;88.60;;;;;;5040857;28;20847;-47
2021/05/18 09:28:40;;;;;;;8.75;7.85;;;15.10;81.40;;;;;;5005624;28;20200;-49
2021/05/18 10:24:44;;;;;;;9.23;7.63;;;16.90;71.90;;;;;;5043890;28;20048;-51
2021/05/18 10:34:56;;;;;;;18.90;16.88;;;14.80;80.40;;;;;;5035036;28;19925;-50
2021/05/18 10:37:51;;;;;;;6.97;4.00;;;14.30;82.40;;;;;;5033293;28;20045;-49
2021/05/18 10:40:35;;;;;;;6.70;5.05;;;14.10;86.00;;;;;;5028927;28;20083;-48
2021/05/18 10:43:20;;;;;;;6.57;4.60;;;13.90;88.80;;;;;;5027751;28;20455;-48
2021/05/18 10:45:56;;;;;;;6.80;5.32;;;13.90;89.30;;;;;;5029956;28;20053;-51
2021/05/18 10:48:36;;;;;;;6.45;5.18;;;13.80;90.10;;;;;;5030992;28;20045;-48
2021/05/18 10:51:23;;;;;;;11.85;10.20;;;13.90;89.10;;;;;;5014666;28;20065;-51
2021/05/18 10:54:10;;;;;;;6.47;5.25;;;13.90;90.30;;;;;;5036305;28;20049;-51
2021/05/18 10:57:03;;;;;;;7.20;5.65;;;13.90;90.70;;;;;;5037433;28;20076;-46
2021/05/18 10:59:43;;;;;;;7.53;6.18;;;14.10;91.10;;;;;;5030968;28;20053;-50
2021/05/18 11:02:31;;;;;;;25.25;22.48;;;14.00;90.90;;;;;;5035992;28;20140;-47
2021/05/18 11:05:15;;;;;;;8.80;7.93;;;14.10;90.30;;;;;;5057621;28;20055;-51
2021/05/18 11:07:46;;;;;;;10.50;9.40;;;14.00;90.20;;;;;;5106493;28;20040;-52
2021/05/18 11:10:18;;;;;;;12.13;10.88;;;13.90;91.20;;;;;;5105601;28;20074;-52
2021/05/18 11:12:48;;;;;;;13.40;11.35;;;13.70;91.60;;;;;;5107580;27;20043;-49
2021/05/18 11:15:22;;;;;;;16.08;14.43;;;13.70;92.80;;;;;;5106675;28;20159;-49
2021/05/18 11:17:51;;;;;;;15.18;13.02;;;13.90;92.60;;;;;;5105677;28;20800;-51
2021/05/18 11:20:34;;;;;;;10.88;9.77;;;14.30;91.80;;;;;;5106852;28;20046;-53
2021/05/18 11:23:21;;;;;;;10.90;9.38;;;14.70;91.10;;;;;;5105415;28;20036;-51
2021/05/18 11:26:06;;;;;;;9.00;7.20;;;15.50;90.00;;;;;;5098988;28;20095;-55
2021/05/18 11:28:40;;;;;;;5.72;5.13;;;16.00;89.20;;;;;;5110075;28;20520;-50
2021/05/18 11:31:07;;;;;;;6.43;5.18;;;16.20;82.90;;;;;;5108075;28;20043;-53
2021/05/18 11:33:46;;;;;;;8.35;6.80;;;16.20;82.40;;;;;;5107620;28;20391;-52
2021/05/18 11:36:14;;;;;;;10.38;5.07;;;16.60;83.40;;;;;;5101431;28;20599;-54
2021/05/18 11:39:08;;;;;;;5.80;4.50;;;16.70;81.70;;;;;;5107118;28;20039;-51
2021/05/18 11:41:40;;;;;;;3.45;2.92;;;17.20;79.10;;;;;;5098090;28;20048;-50
2021/05/18 11:44:08;;;;;;;3.53;2.60;;;16.90;74.00;;;;;;5105259;28;20047;-50
2021/05/18 11:46:41;;;;;;;2.92;2.53;;;17.10;78.50;;;;;;5106890;27;20051;-52
2021/05/18 11:49:11;;;;;;;3.38;2.83;;;17.80;77.00;;;;;;5106604;28;20043;-52
2021/05/18 11:51:45;;;;;;;5.75;3.60;;;18.10;72.80;;;;;;5107928;28;20051;-53
2021/05/18 11:54:19;;;;;;;4.72;3.63;;;18.00;69.40;;;;;;5113312;27;20117;-52
2021/05/18 11:56:48;;;;;;;5.25;3.55;;;17.80;69.50;;;;;;5111110;28;20180;-50
2021/05/18 11:59:17;;;;;;;5.40;3.60;;;18.60;74.70;;;;;;5110645;28;20040;-51
2021/05/18 12:01:51;;;;;;;5.20;3.75;;;19.00;72.90;;;;;;5111110;28;20487;-50
2021/05/18 12:04:19;;;;;;;5.32;4.40;;;19.10;67.20;;;;;;5109961;27;20518;-52
2021/05/18 12:07:16;;;;;;;5.22;4.07;;;18.90;69.10;;;;;;5109779;28;20808;-50
2021/05/18 12:09:44;;;;;;;5.47;4.80;;;19.30;69.50;;;;;;5108972;28;20051;-52
2021/05/18 12:12:14;;;;;;;6.43;4.57;;;19.80;71.70;;;;;;5108374;27;20491;-48
2021/05/18 12:14:51;;;;;;;4.18;3.53;;;19.80;65.40;;;;;;5117558;27;20384;-50
2021/05/18 12:17:31;;;;;;;3.47;2.88;;;20.20;67.80;;;;;;5111696;27;20043;-52
2021/05/18 12:20:03;;;;;;;5.43;4.07;;;20.00;57.00;;;;;;5111241;27;20053;-50
2021/05/18 12:22:43;;;;;;;5.90;4.80;;;19.60;61.20;;;;;;5110183;27;20043;-49
2021/05/18 12:25:32;;;;;;;10.02;5.32;;;19.80;61.70;;;;;;5116216;27;20072;-50
2021/05/18 12:28:07;;;;;;;19.25;17.25;;;19.70;61.50;;;;;;5105094;27;20127;-50
2021/05/18 12:30:37;;;;;;;4.32;2.88;;;19.70;62.40;;;;;;5112154;27;20051;-48
2021/05/18 12:33:07;;;;;;;6.50;4.88;;;20.40;62.30;;;;;;5127218;27;20047;-45
2021/05/18 12:35:34;;;;;;;5.82;5.00;;;20.70;57.30;;;;;;5118636;27;20403;-46
2021/05/18 12:38:14;;;;;;;4.88;2.53;;;20.70;60.00;;;;;;5107313;27;20193;-49
2021/05/18 12:40:45;;;;;;;19.48;17.58;;;20.30;57.00;;;;;;5119131;27;20463;-52
2021/05/18 12:43:14;;;;;;;36.38;32.47;;;21.10;58.40;;;;;;5108737;27;20048;-50
2021/05/18 12:45:45;;;;;;;21.45;18.63;;;20.20;57.80;;;;;;5107335;27;20071;-55
2021/05/18 12:48:14;;;;;;;40.38;36.10;;;19.60;59.20;;;;;;5109309;28;20047;-49
2021/05/18 12:50:49;;;;;;;20.55;17.65;;;18.90;61.20;;;;;;5109300;28;20047;-51
2021/05/18 12:53:27;;;;;;;6.00;4.50;;;18.60;60.90;;;;;;5109111;28;20076;-49
2021/05/18 12:55:54;;;;;;;7.65;6.43;;;18.20;60.10;;;;;;5107592;28;20054;-54
2021/05/18 12:58:29;;;;;;;8.05;6.80;;;17.90;62.50;;;;;;5108929;28;20426;-47
2021/05/18 13:01:13;;;;;;;13.05;11.65;;;17.70;61.80;;;;;;5106469;28;20044;-49
2021/05/18 13:03:41;;;;;;;5.75;4.50;;;17.70;61.70;;;;;;5108393;28;20120;-47
2021/05/18 13:06:08;;;;;;;5.25;4.32;;;17.90;62.90;;;;;;5109686;28;20115;-47
2021/05/18 13:08:37;;;;;;;6.75;4.60;;;18.80;63.20;;;;;;5107937;28;20070;-50
2021/05/18 13:13:56;;;;;;;5.45;4.50;;;19.70;61.60;;;;;;5107131;28;20164;-48
2021/05/18 13:16:23;;;;;;;6.60;4.47;;;19.90;59.90;;;;;;5106139;27;20805;-49
2021/05/18 13:18:56;;;;;;;12.10;10.57;;;20.90;58.00;;;;;;5109491;28;20071;-48
2021/05/18 13:21:56;;;;;;;7.57;6.40;;;21.50;52.90;;;;;;5108021;28;20052;-50
2021/05/18 13:26:53;;;;;;;12.90;11.07;;;22.70;54.20;;;;;;5107249;28;20059;-48
2021/05/18 13:29:20;;;;;;;9.55;8.55;;;23.00;50.90;;;;;;5106798;28;20047;-46
2021/05/18 13:31:49;;;;;;;6.75;5.88;;;23.10;50.90;;;;;;5106380;28;20136;-50
2021/05/18 13:34:15;;;;;;;6.28;5.13;;;23.40;49.30;;;;;;5108022;28;20558;-51
2021/05/18 13:36:43;;;;;;;7.25;6.38;;;23.60;49.90;;;;;;5108413;28;20646;-46
2021/05/18 13:39:21;;;;;;;6.38;5.72;;;23.10;49.80;;;;;;5107009;28;20050;-47
2021/05/18 13:41:50;;;;;;;6.65;5.72;;;23.20;48.50;;;;;;5107977;28;20051;-47
2021/05/18 13:44:17;;;;;;;7.35;6.30;;;22.10;47.80;;;;;;5107602;28;20055;-48
2021/05/18 13:46:47;;;;;;;5.93;5.32;;;22.20;50.90;;;;;;5108975;28;20056;-46
2021/05/18 13:49:14;;;;;;;7.80;6.63;;;22.80;49.20;;;;;;5107115;28;20131;-52
2021/05/18 13:51:43;;;;;;;7.35;6.28;;;23.10;50.10;;;;;;5103647;28;20515;-46
2021/05/18 13:54:10;;;;;;;21.48;19.42;;;23.20;50.20;;;;;;5108063;28;20052;-51
2021/05/18 13:56:38;;;;;;;10.57;9.43;;;23.80;50.10;;;;;;5106027;28;20255;-49
2021/05/18 13:59:08;;;;;;;6.55;5.22;;;24.00;49.10;;;;;;5106789;28;20051;-48
2021/05/18 14:01:39;;;;;;;5.05;4.55;;;23.20;46.60;;;;;;5105368;27;20054;-51
2021/05/18 14:04:05;;;;;;;5.15;4.40;;;22.60;47.80;;;;;;5104571;27;20046;-51
2021/05/18 14:06:35;;;;;;;15.20;13.77;;;22.10;48.10;;;;;;5114237;27;20050;-50
2021/05/18 14:09:01;;;;;;;4.97;3.90;;;20.70;51.00;;;;;;5119329;27;20036;-48
2021/05/18 14:11:27;;;;;;;7.22;4.68;;;20.20;52.10;;;;;;5115709;27;20130;-52
2021/05/18 14:13:58;;;;;;;9.82;7.78;;;19.90;53.30;;;;;;5106095;28;20177;-50
2021/05/18 14:16:27;;;;;;;6.65;5.43;;;19.80;53.70;;;;;;5107025;28;20890;-49
2021/05/18 14:18:55;;;;;;;11.82;10.57;;;19.80;54.00;;;;;;5106976;28;20047;-50
2021/05/18 14:21:22;;;;;;;5.63;5.00;;;19.80;54.90;;;;;;5102088;28;20056;-53
2021/05/18 14:26:23;;;;;;;7.13;5.93;;;21.20;52.30;;;;;;5107178;28;20062;-52
2021/05/18 14:28:51;;;;;;;6.10;4.25;;;21.50;50.60;;;;;;5107490;27;20044;-47
2021/05/18 14:31:21;;;;;;;11.60;10.07;;;21.00;51.80;;;;;;5108545;28;20043;-50
2021/05/18 14:33:48;;;;;;;6.47;5.25;;;20.50;52.80;;;;;;5106342;28;20559;-50
2021/05/18 14:36:14;;;;;;;5.40;4.75;;;19.50;54.40;;;;;;5107132;28;20040;-48
2021/05/18 14:38:44;;;;;;;5.40;4.68;;;19.10;56.50;;;;;;5107843;28;20525;-52
2021/05/18 14:46:50;;;;;;;14.45;12.20;;;18.00;60.80;;;;;;5105196;28;20043;-49
2021/05/18 14:55:17;;;;;;;8.40;6.28;;;16.80;70.40;;;;;;5107117;28;20055;-51
2021/05/18 14:57:42;;;;;;;11.93;7.15;;;16.10;74.30;;;;;;5098624;28;20052;-52
2021/05/18 15:00:09;;;;;;;14.73;12.63;;;15.20;83.20;;;;;;5108675;28;20035;-57
2021/05/18 15:02:35;;;;;;;8.27;6.57;;;14.80;83.80;;;;;;5103228;28;20058;-52
2021/05/18 15:05:02;;;;;;;12.35;9.40;;;13.90;85.60;;;;;;5110643;27;20051;-56
2021/05/18 15:07:29;;;;;;;21.65;15.35;;;13.80;87.00;;;;;;5105094;27;20048;-56
2021/05/18 15:09:56;;;;;;;27.70;23.13;;;13.30;91.10;;;;;;5108775;27;20078;-55
2021/05/18 15:12:22;;;;;;;13.68;10.52;;;13.20;91.20;;;;;;5093693;28;20047;-54
2021/05/18 15:14:48;;;;;;;13.43;9.07;;;13.00;91.60;;;;;;5113569;27;20057;-50
2021/05/18 15:17:15;;;;;;;15.55;10.85;;;13.00;91.40;;;;;;5108334;27;20044;-47
2021/05/18 15:19:44;;;;;;;15.85;10.65;;;13.20;91.30;;;;;;5101281;28;20796;-46
2021/05/18 15:22:11;;;;;;;11.73;9.25;;;13.50;92.20;;;;;;5110444;27;20055;-52
2021/05/18 15:24:37;;;;;;;12.52;8.65;;;13.80;92.60;;;;;;5097045;28;20054;-52
2021/05/18 15:27:05;;;;;;;9.32;8.25;;;13.90;94.30;;;;;;5102697;28;20047;-51
2021/05/18 15:29:34;;;;;;;14.18;12.70;;;13.90;93.50;;;;;;5106222;28;20134;-52
2021/05/18 15:32:01;;;;;;;11.00;8.63;;;13.90;93.10;;;;;;5098278;27;20538;-49
2021/05/18 15:34:28;;;;;;;10.35;9.23;;;13.70;92.40;;;;;;5106809;28;20752;-51
2021/05/18 15:36:57;;;;;;;15.88;13.82;;;13.70;92.20;;;;;;5109460;28;20059;-52
2021/05/18 15:39:25;;;;;;;10.68;9.57;;;13.60;92.80;;;;;;5114207;27;20057;-51
2021/05/18 15:41:51;;;;;;;16.42;13.88;;;13.50;92.20;;;;;;5107824;28;20136;-53
2021/05/18 15:44:17;;;;;;;12.50;10.90;;;13.70;94.10;;;;;;5107151;27;20100;-51
2021/05/18 15:46:45;;;;;;;15.63;13.60;;;13.90;92.80;;;;;;5098392;27;20127;-51
2021/05/18 15:49:11;;;;;;;14.98;12.90;;;14.00;92.70;;;;;;5096653;28;20566;-50
2021/05/18 15:51:38;;;;;;;18.58;15.00;;;14.20;92.30;;;;;;5109454;27;20048;-52
2021/05/18 15:54:06;;;;;;;13.20;11.75;;;14.40;92.60;;;;;;5102095;27;20061;-55
2021/05/18 15:56:36;;;;;;;13.23;11.93;;;14.50;92.80;;;;;;5113964;27;20442;-50
2021/05/18 15:59:03;;;;;;;12.60;11.32;;;14.60;93.10;;;;;;5110803;27;20040;-51
2021/05/18 16:01:30;;;;;;;12.32;11.13;;;14.60;92.60;;;;;;5094611;27;20059;-52
2021/05/18 16:03:56;;;;;;;13.88;12.00;;;14.50;92.10;;;;;;5110176;28;20046;-54
2021/05/18 16:06:23;;;;;;;13.98;12.63;;;14.50;92.00;;;;;;5110168;28;20048;-50
2021/05/18 16:11:16;;;;;;;12.20;10.82;;;14.40;92.20;;;;;;5104869;27;20054;-51
2021/05/18 16:13:42;;;;;;;11.55;10.35;;;14.30;92.00;;;;;;5110844;28;20075;-50
2021/05/18 16:16:16;;;;;;;12.40;11.10;;;14.30;92.80;;;;;;5101413;27;20563;-50
2021/05/18 16:18:50;;;;;;;11.90;10.70;;;14.20;92.30;;;;;;5115436;27;20844;-49
2021/05/18 16:21:18;;;;;;;12.60;11.25;;;14.00;92.40;;;;;;5110152;28;20091;-50
2021/05/18 16:23:49;;;;;;;12.93;11.40;;;14.00;92.50;;;;;;5110902;27;20082;-51
2021/05/18 16:26:33;;;;;;;15.13;13.55;;;13.90;92.80;;;;;;5093931;27;20086;-51
2021/05/18 16:29:05;;;;;;;12.48;11.23;;;13.90;92.80;;;;;;5110702;28;20128;-51
2021/05/18 16:31:31;;;;;;;13.30;11.68;;;14.00;92.40;;;;;;5109622;28;20054;-52
2021/05/18 16:34:00;;;;;;;12.48;11.13;;;14.10;92.60;;;;;;5089609;28;20086;-52
2021/05/18 16:36:30;;;;;;;14.30;12.77;;;14.00;92.40;;;;;;5094528;28;20052;-52
2021/05/18 16:38:57;;;;;;;36.92;32.72;;;14.00;92.00;;;;;;5103702;28;20067;-56
2021/05/18 16:41:23;;;;;;;20.70;18.48;;;14.00;92.40;;;;;;5104338;28;20043;-54
2021/05/18 16:43:52;;;;;;;12.63;11.32;;;13.90;92.00;;;;;;5106175;28;20083;-54
2021/05/18 16:46:19;;;;;;;12.02;10.05;;;13.90;92.10;;;;;;5095793;28;20047;-51
2021/05/18 16:48:48;;;;;;;14.43;12.95;;;13.80;91.80;;;;;;5105625;27;20145;-51
2021/05/18 16:51:14;;;;;;;44.20;38.13;;;13.80;92.60;;;;;;5107464;28;20043;-55
2021/05/18 16:53:41;;;;;;;16.67;14.93;;;13.70;92.60;;;;;;5098301;27;20219;-57
2021/05/18 16:56:09;;;;;;;13.00;11.73;;;13.60;93.20;;;;;;5120660;27;20698;-57
2021/05/18 16:58:38;;;;;;;11.88;10.73;;;13.60;93.30;;;;;;5109038;27;20039;-56
2021/05/18 17:01:06;;;;;;;12.75;11.32;;;13.60;93.40;;;;;;5109506;27;20059;-56
2021/05/18 17:03:32;;;;;;;13.95;12.55;;;13.60;93.30;;;;;;5100063;27;20044;-58
2021/05/18 17:06:00;;;;;;;12.20;10.95;;;13.60;93.80;;;;;;5107321;28;20059;-54
2021/05/18 17:08:29;;;;;;;11.65;10.25;;;13.70;93.10;;;;;;5107286;28;20048;-57
2021/05/18 17:10:58;;;;;;;14.77;12.35;;;13.80;92.30;;;;;;5094367;28;20040;-55
2021/05/18 17:13:25;;;;;;;11.77;10.45;;;13.90;93.30;;;;;;5101249;28;20123;-55
2021/05/18 17:15:51;;;;;;;12.57;11.25;;;14.00;93.00;;;;;;5106924;28;20059;-57
2021/05/18 17:18:20;;;;;;;12.52;11.23;;;14.00;92.60;;;;;;5098191;27;20043;-53
2021/05/18 17:20:46;;;;;;;20.05;17.90;;;14.00;93.30;;;;;;5096073;28;20055;-53
2021/05/18 17:23:18;;;;;;;11.68;10.48;;;14.10;92.60;;;;;;5106814;28;20050;-53
2021/05/18 17:25:48;;;;;;;11.32;9.98;;;14.20;92.10;;;;;;5107218;28;20055;-54
2021/05/18 17:28:19;;;;;;;13.45;10.77;;;14.20;92.20;;;;;;5079190;28;20040;-53
2021/05/18 17:30:46;;;;;;;11.27;9.90;;;14.20;92.40;;;;;;5106668;28;20047;-54
2021/05/18 17:33:15;;;;;;;12.98;11.60;;;13.90;91.80;;;;;;5085245;28;20044;-53
2021/05/18 17:35:42;;;;;;;14.30;12.80;;;13.90;91.50;;;;;;5095960;28;20055;-55
2021/05/18 17:38:14;;;;;;;10.05;9.05;;;13.80;91.60;;;;;;5105343;28;20176;-54
2021/05/18 17:40:45;;;;;;;10.60;8.13;;;13.60;92.30;;;;;;5108344;27;20062;-52
2021/05/18 17:43:19;;;;;;;11.25;8.68;;;13.60;92.00;;;;;;5087529;28;20080;-53
2021/05/18 17:45:48;;;;;;;15.88;14.02;;;13.40;91.60;;;;;;5102873;28;20051;-50
2021/05/18 17:48:17;;;;;;;50.42;44.83;;;13.30;91.50;;;;;;5105851;28;20138;-52
2021/05/18 17:50:46;;;;;;;14.27;12.88;;;13.30;91.70;;;;;;5082886;28;20075;-54
2021/05/18 17:53:15;;;;;;;12.93;11.35;;;13.20;92.40;;;;;;5105851;28;20570;-54
2021/05/18 17:55:44;;;;;;;12.32;11.07;;;13.10;92.90;;;;;;5105823;28;20130;-51
2021/05/18 17:58:18;;;;;;;14.05;11.82;;;13.10;93.20;;;;;;5088950;28;20052;-54